Terminal Aerodrome Forecast
Issued by NWS Knoxville/Tri Cities, TN

Home | Current Version | Previous Version | Text Only | Print | Product List | Glossary On
Versions: 1 2 3 4 5 6 7 8 9 10 11 12 13 14 15 16 17 18 19 20 21
000
FTUS44 KMRX 181743
TAFTRI
TAF
KTRI 181743Z 1818/1918 26008KT P6SM BKN050
     FM190100 VRB03KT P6SM SCT050 BKN100
     FM190800 00000KT 4SM BR BKN020
     FM191000 00000KT 2SM BR BKN020
     FM191400 27005KT P6SM SCT050=

USA.gov is the U.S. government's official web portal to all federal, state and local government web resources and services.